Florence, OR

2:23 PM PST on February 10, 2016 (GMT -0800)
Collard Lake | | Change Station
CLOSE
Current Station
Personal Weather Station
Location: Florence, OR
Elevation: 174 ft
Nearby Weather Stations

Elev 174 ft 44.04 °N, 124.08 °W | Updated 29 seconds ago

Overcast
Overcast
58.1 °F
Feels Like 58.1 °F
N
1.7
Wind Variable Wind from WSW

Today
High -- | Low -- °F
--% Chance of Precip.
Yesterday
High -- | Low -- °F
Precip. -- in
Pressure 30.30 in
Visibility 1.5 miles
Clouds Overcast 600 ft
Dew Point 55 °F
Humidity 88%
Rainfall 0.00 in
Snow Depth Not available.
7:22 AM 5:38 PM
Waxing Crescent, 7% visible
METAR KONP 102215Z AUTO 20012G21KT 1 1/2SM BR OVC006 12/12 A3030 RMK AO2
Pressure 30.30 in
Visibility 1.5 miles
Clouds Overcast 600 ft
Dew Point 55 °F
Humidity 88%
Rainfall 0.00 in
Snow Depth Not available.
7:22 AM 5:38 PM
Waxing Crescent, 7% visible
METAR KONP 102215Z AUTO 20012G21KT 1 1/2SM BR OVC006 12/12 A3030 RMK AO2

10-Day Weather Forecast

Almanac

Astronomy

Feb. 10, 2016 Rise Set
Actual Time
Civil Twilight
Nautical Twilight
Astronomical Twilight
Moon
Length of Visible Light
Length of Day
Tomorrow will be .
, % of the Moon is Illuminated

Today's Extremes

State Highs State Lows

Community

WunderPhotos

Upload Photos

1,891,952 photos uploaded!

WunderBlog® & News

Nearby

Air Quality

  Air Quality AQ Index Pollutant
Not available.

Snow Depth

Station Depth Elevation

Earthquake Activity

City Distance Mag. Time & Date
Minimum magnitude displayed is 2.5.

Coastal Water Temperatures

Place Temperature

Stations

Nearby Weather Stations

Station Location Temp. Windchill Dew Point Humidity Wind Precip. Elev Updated Type
                   

Watches & Warnings

There are currently no watches in effect.